Bismarck, ND (58503)

8:29 PM CDT on August 30, 2015 (GMT -0500)
Centerville Lane | | Change Station
CLOSE
Current Station
Personal Weather Station
Location: Bismarck, ND
Elevation: 1811 ft
Nearby Weather Stations

Elev 1811 ft 46.86 °N, 100.75 °W | Updated 2 seconds ago

Clear
Clear
80.6 °F
Feels Like 81 °F
N
3.3
Wind Variable Wind from NNE
Gusts 3.3 mph

Today
High -- | Low -- °F
--% Chance of Precip.
Yesterday
High -- | Low -- °F
Precip. -- in
6:59 AM 8:26 PM
Full, 98% visible
Pressure 29.59 in
Visibility 10.0 miles
Clouds Clear
Heat Index 81 °F
Dew Point 59 °F
Humidity 49%
Rainfall 0.00 in
Snow Depth Not available.
UV 0 out of 12
Pollen 11.50 out of 12
Air Quality Not available.
Flu Activity Not available.
METAR KBIS 310052Z AUTO 06003KT 10SM CLR 31/18 A2962 RMK AO2 SLP019 T03110183
Pressure 29.59 in
Visibility 10.0 miles
Clouds Clear
Heat Index 81 °F
Dew Point 59 °F
Humidity 49%
Rainfall 0.00 in
Snow Depth Not available.
UV 0 out of 12
Pollen 11.50 out of 12
Air Quality Not available.
Flu Activity Not available.
METAR KBIS 310052Z AUTO 06003KT 10SM CLR 31/18 A2962 RMK AO2 SLP019 T03110183

10-Day Weather Forecast

×

Almanac

Astronomy

Aug. 30, 2015 Rise Set
Actual Time
Civil Twilight
Nautical Twilight
Astronomical Twilight
Moon
Length of Visible Light
Length of Day
Tomorrow will be .
, % of the Moon is Illuminated

Today's Extremes

State Highs State Lows

Community

WunderPhotos

Upload Photos

1,851,130 photos uploaded!

WunderBlogs® & News

Nearby

Air Quality

  Air Quality AQ Index Pollutant
Not available.

Snow Depth

Station Depth Elevation

Earthquake Activity

City Distance Mag. Time & Date
Minimum magnitude displayed is 2.5.

Coastal Water Temperatures

Place Temperature

Stations

Nearby Weather Stations

Station Location Temp. Windchill Dew Point Humidity Wind Precip. Elev Updated Type